sensor_id;sensor_type;location;lat;lon;timestamp;pressure;altitude;pressure_sealevel;temperature
70435;BMP280;57876;47.792;12.960;2022-10-04T00:01:08;97591.41;;;18.35
70435;BMP280;57876;47.792;12.960;2022-10-04T00:03:39;97590.69;;;18.34
70435;BMP280;57876;47.792;12.960;2022-10-04T00:06:05;97598.16;;;18.34
70435;BMP280;57876;47.792;12.960;2022-10-04T00:08:37;97594.13;;;18.35
70435;BMP280;57876;47.792;12.960;2022-10-04T00:11:16;97593.94;;;18.33
70435;BMP280;57876;47.792;12.960;2022-10-04T00:13:54;97602.75;;;18.31
70435;BMP280;57876;47.792;12.960;2022-10-04T00:16:39;97608.25;;;18.31
70435;BMP280;57876;47.792;12.960;2022-10-04T00:24:28;97608.78;;;18.30
70435;BMP280;57876;47.792;12.960;2022-10-04T00:27:22;97606.03;;;18.30
70435;BMP280;57876;47.792;12.960;2022-10-04T00:38:00;97596.19;;;18.27
70435;BMP280;57876;47.792;12.960;2022-10-04T00:40:38;97592.72;;;18.26
70435;BMP280;57876;47.792;12.960;2022-10-04T00:43:06;97581.03;;;18.26
70435;BMP280;57876;47.792;12.960;2022-10-04T00:45:40;97589.97;;;18.26
70435;BMP280;57876;47.792;12.960;2022-10-04T00:56:00;97576.09;;;18.24
70435;BMP280;57876;47.792;12.960;2022-10-04T00:58:35;97569.16;;;18.23
70435;BMP280;57876;47.792;12.960;2022-10-04T01:01:07;97571.19;;;18.23
70435;BMP280;57876;47.792;12.960;2022-10-04T01:03:36;97573.19;;;18.22
70435;BMP280;57876;47.792;12.960;2022-10-04T01:06:04;97573.19;;;18.22
70435;BMP280;57876;47.792;12.960;2022-10-04T01:08:31;97564.25;;;18.22
70435;BMP280;57876;47.792;12.960;2022-10-04T01:11:13;97571.00;;;18.21
70435;BMP280;57876;47.792;12.960;2022-10-04T01:13:43;97577.97;;;18.22
70435;BMP280;57876;47.792;12.960;2022-10-04T01:18:37;97571.72;;;18.21
70435;BMP280;57876;47.792;12.960;2022-10-04T01:23:52;97571.53;;;18.19
70435;BMP280;57876;47.792;12.960;2022-10-04T01:31:49;97567.38;;;18.18
70435;BMP280;57876;47.792;12.960;2022-10-04T01:34:17;97579.00;;;18.19
70435;BMP280;57876;47.792;12.960;2022-10-04T01:36:43;97570.13;;;18.18
70435;BMP280;57876;47.792;12.960;2022-10-04T01:39:09;97565.16;;;18.17
70435;BMP280;57876;47.792;12.960;2022-10-04T01:41:47;97556.94;;;18.17
70435;BMP280;57876;47.792;12.960;2022-10-04T01:44:21;97560.44;;;18.17
70435;BMP280;57876;47.792;12.960;2022-10-04T01:46:48;97557.50;;;18.15
70435;BMP280;57876;47.792;12.960;2022-10-04T01:49:18;97557.50;;;18.15
70435;BMP280;57876;47.792;12.960;2022-10-04T01:51:55;97558.78;;;18.14
70435;BMP280;57876;47.792;12.960;2022-10-04T01:54:29;97551.28;;;18.15
70435;BMP280;57876;47.792;12.960;2022-10-04T01:59:31;97553.31;;;18.14
70435;BMP280;57876;47.792;12.960;2022-10-04T02:02:02;97548.41;;;18.13
70435;BMP280;57876;47.792;12.960;2022-10-04T02:04:30;97542.91;;;18.13
70435;BMP280;57876;47.792;12.960;2022-10-04T02:06:58;97557.31;;;18.13
70435;BMP280;57876;47.792;12.960;2022-10-04T02:09:25;97555.88;;;18.12
70435;BMP280;57876;47.792;12.960;2022-10-04T02:11:52;97552.41;;;18.12
70435;BMP280;57876;47.792;12.960;2022-10-04T02:14:21;97548.94;;;18.11
70435;BMP280;57876;47.792;12.960;2022-10-04T02:16:47;97554.41;;;18.11
70435;BMP280;57876;47.792;12.960;2022-10-04T02:19:17;97546.94;;;18.12
70435;BMP280;57876;47.792;12.960;2022-10-04T02:21:43;97564.63;;;18.11
70435;BMP280;57876;47.792;12.960;2022-10-04T02:24:08;97552.94;;;18.10
70435;BMP280;57876;47.792;12.960;2022-10-04T02:26:33;97552.94;;;18.10
70435;BMP280;57876;47.792;12.960;2022-10-04T02:28:57;97553.69;;;18.11
70435;BMP280;57876;47.792;12.960;2022-10-04T02:31:23;97556.44;;;18.11
70435;BMP280;57876;47.792;12.960;2022-10-04T02:34:07;97544.00;;;18.10
70435;BMP280;57876;47.792;12.960;2022-10-04T02:36:35;97546.75;;;18.10
70435;BMP280;57876;47.792;12.960;2022-10-04T02:39:07;97543.28;;;18.09
70435;BMP280;57876;47.792;12.960;2022-10-04T02:41:37;97544.00;;;18.10
70435;BMP280;57876;47.792;12.960;2022-10-04T02:44:20;97546.59;;;18.08
70435;BMP280;57876;47.792;12.960;2022-10-04T02:46:55;97554.81;;;18.08
70435;BMP280;57876;47.792;12.960;2022-10-04T02:49:36;97543.09;;;18.07
70435;BMP280;57876;47.792;12.960;2022-10-04T02:52:09;97544.56;;;18.08
70435;BMP280;57876;47.792;12.960;2022-10-04T02:55:03;97543.84;;;18.08
70435;BMP280;57876;47.792;12.960;2022-10-04T02:57:30;97547.88;;;18.07
70435;BMP280;57876;47.792;12.960;2022-10-04T03:00:26;97547.88;;;18.07
70435;BMP280;57876;47.792;12.960;2022-10-04T03:03:23;97545.84;;;18.07
70435;BMP280;57876;47.792;12.960;2022-10-04T03:08:34;97538.91;;;18.06
70435;BMP280;57876;47.792;12.960;2022-10-04T03:11:01;97542.91;;;18.05
70435;BMP280;57876;47.792;12.960;2022-10-04T03:13:26;97541.66;;;18.06
70435;BMP280;57876;47.792;12.960;2022-10-04T03:15:51;97538.75;;;18.04
70435;BMP280;57876;47.792;12.960;2022-10-04T03:18:16;97537.44;;;18.05
70435;BMP280;57876;47.792;12.960;2022-10-04T03:20:41;97536.72;;;18.05
70435;BMP280;57876;47.792;12.960;2022-10-04T03:23:06;97531.97;;;18.05
70435;BMP280;57876;47.792;12.960;2022-10-04T03:25:42;97533.28;;;18.04
70435;BMP280;57876;47.792;12.960;2022-10-04T03:28:08;97529.78;;;18.04
70435;BMP280;57876;47.792;12.960;2022-10-04T03:30:34;97532.53;;;18.04
70435;BMP280;57876;47.792;12.960;2022-10-04T03:32:59;97538.75;;;18.04
70435;BMP280;57876;47.792;12.960;2022-10-04T03:35:32;97549.69;;;18.04
70435;BMP280;57876;47.792;12.960;2022-10-04T03:37:57;97542.75;;;18.03
70435;BMP280;57876;47.792;12.960;2022-10-04T03:40:27;97538.00;;;18.04
70435;BMP280;57876;47.792;12.960;2022-10-04T03:42:53;97540.75;;;18.04
70435;BMP280;57876;47.792;12.960;2022-10-04T03:45:18;97531.81;;;18.03
70435;BMP280;57876;47.792;12.960;2022-10-04T03:47:45;97535.81;;;18.02
70435;BMP280;57876;47.792;12.960;2022-10-04T03:50:18;97519.41;;;18.02
70435;BMP280;57876;47.792;12.960;2022-10-04T03:52:53;97510.44;;;18.02
70435;BMP280;57876;47.792;12.960;2022-10-04T03:55:18;97517.94;;;18.01
70435;BMP280;57876;47.792;12.960;2022-10-04T03:57:43;97518.66;;;18.02
70435;BMP280;57876;47.792;12.960;2022-10-04T04:00:08;97515.91;;;18.02
70435;BMP280;57876;47.792;12.960;2022-10-04T04:02:37;97515.19;;;18.01
70435;BMP280;57876;47.792;12.960;2022-10-04T04:10:51;97527.44;;;18.00
70435;BMP280;57876;47.792;12.960;2022-10-04T04:15:47;97529.44;;;18.00
70435;BMP280;57876;47.792;12.960;2022-10-04T04:18:23;97526.72;;;18.00
70435;BMP280;57876;47.792;12.960;2022-10-04T04:20:49;97533.47;;;17.99
70435;BMP280;57876;47.792;12.960;2022-10-04T04:25:44;97533.47;;;17.99
70435;BMP280;57876;47.792;12.960;2022-10-04T04:28:39;97532.72;;;17.98
70435;BMP280;57876;47.792;12.960;2022-10-04T04:31:18;97535.47;;;17.98
70435;BMP280;57876;47.792;12.960;2022-10-04T04:33:47;97531.47;;;17.99
70435;BMP280;57876;47.792;12.960;2022-10-04T04:36:14;97530.16;;;18.00
70435;BMP280;57876;47.792;12.960;2022-10-04T04:38:38;97524.31;;;18.04
70435;BMP280;57876;47.792;12.960;2022-10-04T04:41:24;97517.34;;;18.10
70435;BMP280;57876;47.792;12.960;2022-10-04T04:43:49;97516.19;;;18.21
70435;BMP280;57876;47.792;12.960;2022-10-04T04:46:14;97515.09;;;18.31
70435;BMP280;57876;47.792;12.960;2022-10-04T04:48:42;97509.00;;;18.40
70435;BMP280;57876;47.792;12.960;2022-10-04T04:51:16;97514.63;;;18.50
70435;BMP280;57876;47.792;12.960;2022-10-04T04:53:42;97508.56;;;18.59
70435;BMP280;57876;47.792;12.960;2022-10-04T04:56:17;97507.75;;;18.65
70435;BMP280;57876;47.792;12.960;2022-10-04T04:58:45;97504.63;;;18.69
70435;BMP280;57876;47.792;12.960;2022-10-04T05:01:21;97507.69;;;18.73
70435;BMP280;57876;47.792;12.960;2022-10-04T05:04:25;97515.00;;;18.78
70435;BMP280;57876;47.792;12.960;2022-10-04T05:07:05;97515.88;;;18.80
70435;BMP280;57876;47.792;12.960;2022-10-04T05:09:38;97516.97;;;18.85
70435;BMP280;57876;47.792;12.960;2022-10-04T05:12:08;97523.91;;;18.86
70435;BMP280;57876;47.792;12.960;2022-10-04T05:14:45;97523.34;;;18.87
70435;BMP280;57876;47.792;12.960;2022-10-04T05:17:33;97518.03;;;18.89
70435;BMP280;57876;47.792;12.960;2022-10-04T05:19:59;97522.06;;;18.88
70435;BMP280;57876;47.792;12.960;2022-10-04T05:22:25;97521.31;;;18.88
70435;BMP280;57876;47.792;12.960;2022-10-04T05:24:53;97530.28;;;18.88
70435;BMP280;57876;47.792;12.960;2022-10-04T05:30:07;97541.78;;;18.87
70435;BMP280;57876;47.792;12.960;2022-10-04T05:32:42;97536.91;;;18.85
70435;BMP280;57876;47.792;12.960;2022-10-04T05:35:19;97547.13;;;18.85
70435;BMP280;57876;47.792;12.960;2022-10-04T05:40:31;97533.09;;;18.81
70435;BMP280;57876;47.792;12.960;2022-10-04T05:42:56;97534.38;;;18.80
70435;BMP280;57876;47.792;12.960;2022-10-04T05:45:27;97529.41;;;18.78
70435;BMP280;57876;47.792;12.960;2022-10-04T05:47:56;97531.44;;;18.78
70435;BMP280;57876;47.792;12.960;2022-10-04T05:50:34;97526.53;;;18.76
70435;BMP280;57876;47.792;12.960;2022-10-04T05:53:31;97542.78;;;18.74
70435;BMP280;57876;47.792;12.960;2022-10-04T06:05:07;97540.84;;;18.67
70435;BMP280;57876;47.792;12.960;2022-10-04T06:13:03;97552.72;;;18.63
70435;BMP280;57876;47.792;12.960;2022-10-04T06:15:55;97541.59;;;18.61
70435;BMP280;57876;47.792;12.960;2022-10-04T06:21:26;97553.16;;;18.59
70435;BMP280;57876;47.792;12.960;2022-10-04T06:24:12;97561.38;;;18.59
70435;BMP280;57876;47.792;12.960;2022-10-04T06:29:10;97550.75;;;18.56
70435;BMP280;57876;47.792;12.960;2022-10-04T06:40:11;97562.09;;;18.52
70435;BMP280;57876;47.792;12.960;2022-10-04T06:50:49;97550.81;;;18.48
70435;BMP280;57876;47.792;12.960;2022-10-04T06:53:39;97561.03;;;18.48
70435;BMP280;57876;47.792;12.960;2022-10-04T06:56:13;97565.03;;;18.47
70435;BMP280;57876;47.792;12.960;2022-10-04T06:59:00;97547.31;;;18.48
70435;BMP280;57876;47.792;12.960;2022-10-04T07:01:32;97548.59;;;18.47
70435;BMP280;57876;47.792;12.960;2022-10-04T07:06:55;97553.38;;;18.46
70435;BMP280;57876;47.792;12.960;2022-10-04T07:09:43;97556.81;;;18.47
70435;BMP280;57876;47.792;12.960;2022-10-04T07:12:11;97555.53;;;18.48
70435;BMP280;57876;47.792;12.960;2022-10-04T07:14:45;97563.03;;;18.47
70435;BMP280;57876;47.792;12.960;2022-10-04T07:17:23;97568.72;;;18.49
70435;BMP280;57876;47.792;12.960;2022-10-04T07:19:51;97570.00;;;18.48
70435;BMP280;57876;47.792;12.960;2022-10-04T07:23:12;97578.94;;;18.49
70435;BMP280;57876;47.792;12.960;2022-10-04T07:25:34;97574.91;;;18.50
70435;BMP280;57876;47.792;12.960;2022-10-04T07:30:59;97567.59;;;18.52
70435;BMP280;57876;47.792;12.960;2022-10-04T07:33:27;97560.81;;;18.53
70435;BMP280;57876;47.792;12.960;2022-10-04T07:36:04;97563.56;;;18.53
70435;BMP280;57876;47.792;12.960;2022-10-04T07:38:31;97554.06;;;18.54
70435;BMP280;57876;47.792;12.960;2022-10-04T07:43:27;97547.28;;;18.55
70435;BMP280;57876;47.792;12.960;2022-10-04T07:46:00;97537.06;;;18.56
70435;BMP280;57876;47.792;12.960;2022-10-04T07:48:26;97531.75;;;18.58
70435;BMP280;57876;47.792;12.960;2022-10-04T07:51:17;97525.53;;;18.57
70435;BMP280;57876;47.792;12.960;2022-10-04T07:54:01;97538.50;;;18.57
70435;BMP280;57876;47.792;12.960;2022-10-04T07:56:37;97554.41;;;18.58
70435;BMP280;57876;47.792;12.960;2022-10-04T08:07:50;97541.44;;;18.59
70435;BMP280;57876;47.792;12.960;2022-10-04T08:15:37;97550.41;;;18.59
70435;BMP280;57876;47.792;12.960;2022-10-04T08:20:49;97542.88;;;18.60
70435;BMP280;57876;47.792;12.960;2022-10-04T08:23:19;97541.59;;;18.61
70435;BMP280;57876;47.792;12.960;2022-10-04T08:26:14;97542.88;;;18.60
70435;BMP280;57876;47.792;12.960;2022-10-04T08:36:53;97547.25;;;18.63
70435;BMP280;57876;47.792;12.960;2022-10-04T08:39:42;97539.03;;;18.63
70435;BMP280;57876;47.792;12.960;2022-10-04T09:01:44;97560.97;;;18.63
70435;BMP280;57876;47.792;12.960;2022-10-04T09:13:02;97541.91;;;18.64
70435;BMP280;57876;47.792;12.960;2022-10-04T09:15:54;97541.38;;;18.66
70435;BMP280;57876;47.792;12.960;2022-10-04T09:26:46;97532.41;;;18.65
70435;BMP280;57876;47.792;12.960;2022-10-04T09:35:27;97530.25;;;18.64
70435;BMP280;57876;47.792;12.960;2022-10-04T09:48:24;97525.47;;;18.64
70435;BMP280;57876;47.792;12.960;2022-10-04T09:53:39;97521.47;;;18.65
70435;BMP280;57876;47.792;12.960;2022-10-04T10:04:44;97540.63;;;18.65
70435;BMP280;57876;47.792;12.960;2022-10-04T10:07:23;97533.16;;;18.66
70435;BMP280;57876;47.792;12.960;2022-10-04T10:13:23;97529.69;;;18.65
70435;BMP280;57876;47.792;12.960;2022-10-04T10:25:12;97530.41;;;18.66
70435;BMP280;57876;47.792;12.960;2022-10-04T10:35:33;97527.16;;;18.67
70435;BMP280;57876;47.792;12.960;2022-10-04T10:41:18;97535.38;;;18.67
70435;BMP280;57876;47.792;12.960;2022-10-04T10:44:16;97532.63;;;18.67
70435;BMP280;57876;47.792;12.960;2022-10-04T10:46:56;97529.88;;;18.67
70435;BMP280;57876;47.792;12.960;2022-10-04T10:49:46;97529.88;;;18.67
70435;BMP280;57876;47.792;12.960;2022-10-04T10:55:19;97532.63;;;18.67
70435;BMP280;57876;47.792;12.960;2022-10-04T11:03:44;97531.88;;;18.67
70435;BMP280;57876;47.792;12.960;2022-10-04T11:36:14;97509.38;;;18.68
70435;BMP280;57876;47.792;12.960;2022-10-04T11:44:10;97503.91;;;18.68
70435;BMP280;57876;47.792;12.960;2022-10-04T11:50:06;97503.91;;;18.68
70435;BMP280;57876;47.792;12.960;2022-10-04T12:01:21;97490.91;;;18.69
70435;BMP280;57876;47.792;12.960;2022-10-04T12:15:18;97479.94;;;18.69
70435;BMP280;57876;47.792;12.960;2022-10-04T12:20:28;97466.84;;;18.67
70435;BMP280;57876;47.792;12.960;2022-10-04T12:25:55;97466.09;;;18.67
70435;BMP280;57876;47.792;12.960;2022-10-04T12:47:42;97469.59;;;18.67
70435;BMP280;57876;47.792;12.960;2022-10-04T12:53:24;97459.91;;;18.67
70435;BMP280;57876;47.792;12.960;2022-10-04T13:04:37;97454.41;;;18.67
70435;BMP280;57876;47.792;12.960;2022-10-04T13:10:24;97449.66;;;18.67
70435;BMP280;57876;47.792;12.960;2022-10-04T13:13:24;97462.78;;;18.68
70435;BMP280;57876;47.792;12.960;2022-10-04T13:18:57;97451.69;;;18.67
70435;BMP280;57876;47.792;12.960;2022-10-04T13:21:56;97450.94;;;18.66
70435;BMP280;57876;47.792;12.960;2022-10-04T13:27:17;97466.84;;;18.67
70435;BMP280;57876;47.792;12.960;2022-10-04T13:30:00;97462.63;;;18.67
70435;BMP280;57876;47.792;12.960;2022-10-04T13:32:40;97457.16;;;18.67
70435;BMP280;57876;47.792;12.960;2022-10-04T13:38:00;97459.91;;;18.67
70435;BMP280;57876;47.792;12.960;2022-10-04T13:57:29;97461.97;;;18.59
70435;BMP280;57876;47.792;12.960;2022-10-04T14:00:18;97461.22;;;18.58
70435;BMP280;57876;47.792;12.960;2022-10-04T14:19:08;97454.63;;;18.61
70435;BMP280;57876;47.792;12.960;2022-10-04T14:27:58;97449.88;;;18.62
70435;BMP280;57876;47.792;12.960;2022-10-04T14:35:33;97454.06;;;18.63
70435;BMP280;57876;47.792;12.960;2022-10-04T14:43:55;97459.53;;;18.63
70435;BMP280;57876;47.792;12.960;2022-10-04T14:46:38;97460.28;;;18.63
70435;BMP280;57876;47.792;12.960;2022-10-04T15:00:47;97452.78;;;18.64
70435;BMP280;57876;47.792;12.960;2022-10-04T15:08:36;97465.78;;;18.63
70435;BMP280;57876;47.792;12.960;2022-10-04T15:11:16;97458.25;;;18.64
70435;BMP280;57876;47.792;12.960;2022-10-04T15:13:52;97447.28;;;18.64
70435;BMP280;57876;47.792;12.960;2022-10-04T15:23:51;97456.81;;;18.63
70435;BMP280;57876;47.792;12.960;2022-10-04T15:31:18;97458.25;;;18.64
70435;BMP280;57876;47.792;12.960;2022-10-04T15:33:57;97462.28;;;18.63
70435;BMP280;57876;47.792;12.960;2022-10-04T15:44:45;97470.50;;;18.63
70435;BMP280;57876;47.792;12.960;2022-10-04T15:47:48;97468.50;;;18.63
70435;BMP280;57876;47.792;12.960;2022-10-04T15:56:00;97479.47;;;18.63
70435;BMP280;57876;47.792;12.960;2022-10-04T16:07:36;97456.81;;;18.63
70435;BMP280;57876;47.792;12.960;2022-10-04T16:10:07;97462.28;;;18.63
70435;BMP280;57876;47.792;12.960;2022-10-04T16:15:30;97462.28;;;18.63
70435;BMP280;57876;47.792;12.960;2022-10-04T16:23:35;97470.50;;;18.63
70435;BMP280;57876;47.792;12.960;2022-10-04T16:26:04;97467.06;;;18.62
70435;BMP280;57876;47.792;12.960;2022-10-04T16:39:33;97478.00;;;18.62
70435;BMP280;57876;47.792;12.960;2022-10-04T16:42:20;97479.28;;;18.61
70435;BMP280;57876;47.792;12.960;2022-10-04T16:44:48;97481.47;;;18.63
70435;BMP280;57876;47.792;12.960;2022-10-04T16:47:22;97480.00;;;18.62
70435;BMP280;57876;47.792;12.960;2022-10-04T16:49:52;97477.28;;;18.62
70435;BMP280;57876;47.792;12.960;2022-10-04T16:52:56;97479.28;;;18.61
70435;BMP280;57876;47.792;12.960;2022-10-04T17:06:40;97482.75;;;18.62
70435;BMP280;57876;47.792;12.960;2022-10-04T17:17:45;97481.28;;;18.61
70435;BMP280;57876;47.792;12.960;2022-10-04T17:25:55;97484.03;;;18.61
70435;BMP280;57876;47.792;12.960;2022-10-04T17:28:47;97482.56;;;18.60
70435;BMP280;57876;47.792;12.960;2022-10-04T17:31:25;97482.56;;;18.60
70435;BMP280;57876;47.792;12.960;2022-10-04T17:36:38;97488.81;;;18.60
70435;BMP280;57876;47.792;12.960;2022-10-04T17:47:37;97497.75;;;18.61
70435;BMP280;57876;47.792;12.960;2022-10-04T17:50:28;97499.75;;;18.60
70435;BMP280;57876;47.792;12.960;2022-10-04T17:53:18;97501.75;;;18.60
70435;BMP280;57876;47.792;12.960;2022-10-04T17:56:05;97500.31;;;18.59
70435;BMP280;57876;47.792;12.960;2022-10-04T17:58:38;97490.78;;;18.60
70435;BMP280;57876;47.792;12.960;2022-10-04T18:01:12;97490.78;;;18.60
70435;BMP280;57876;47.792;12.960;2022-10-04T18:03:45;97495.59;;;18.59
70435;BMP280;57876;47.792;12.960;2022-10-04T18:08:49;97492.84;;;18.59
70435;BMP280;57876;47.792;12.960;2022-10-04T18:11:26;97493.53;;;18.60
70435;BMP280;57876;47.792;12.960;2022-10-04T18:14:10;97491.34;;;18.58
70435;BMP280;57876;47.792;12.960;2022-10-04T18:16:48;97497.03;;;18.60
70435;BMP280;57876;47.792;12.960;2022-10-04T18:22:16;97496.28;;;18.60
70435;BMP280;57876;47.792;12.960;2022-10-04T18:24:42;97494.84;;;18.59
70435;BMP280;57876;47.792;12.960;2022-10-04T18:27:20;97492.84;;;18.59
70435;BMP280;57876;47.792;12.960;2022-10-04T18:30:12;97492.09;;;18.59
70435;BMP280;57876;47.792;12.960;2022-10-04T18:32:42;97500.31;;;18.59
70435;BMP280;57876;47.792;12.960;2022-10-04T18:37:51;97496.84;;;18.58
70435;BMP280;57876;47.792;12.960;2022-10-04T18:40:25;97497.59;;;18.59
70435;BMP280;57876;47.792;12.960;2022-10-04T18:42:53;97495.59;;;18.59
70435;BMP280;57876;47.792;12.960;2022-10-04T18:45:32;97508.56;;;18.59
70435;BMP280;57876;47.792;12.960;2022-10-04T18:48:15;97500.31;;;18.59
70435;BMP280;57876;47.792;12.960;2022-10-04T18:50:41;97497.59;;;18.59
70435;BMP280;57876;47.792;12.960;2022-10-04T19:07:02;97503.06;;;18.59
70435;BMP280;57876;47.792;12.960;2022-10-04T19:20:47;97504.34;;;18.58
70435;BMP280;57876;47.792;12.960;2022-10-04T19:23:31;97505.81;;;18.59
70435;BMP280;57876;47.792;12.960;2022-10-04T19:26:22;97505.63;;;18.57
70435;BMP280;57876;47.792;12.960;2022-10-04T19:28:48;97511.28;;;18.59
70435;BMP280;57876;47.792;12.960;2022-10-04T19:31:33;97506.34;;;18.57
70435;BMP280;57876;47.792;12.960;2022-10-04T19:34:17;97507.81;;;18.58
70435;BMP280;57876;47.792;12.960;2022-10-04T19:41:53;97520.06;;;18.57
70435;BMP280;57876;47.792;12.960;2022-10-04T19:47:19;97522.06;;;18.57
70435;BMP280;57876;47.792;12.960;2022-10-04T19:49:53;97523.53;;;18.58
70435;BMP280;57876;47.792;12.960;2022-10-04T19:52:59;97530.28;;;18.57
70435;BMP280;57876;47.792;12.960;2022-10-04T19:55:48;97520.06;;;18.57
70435;BMP280;57876;47.792;12.960;2022-10-04T20:01:12;97515.13;;;18.56
70435;BMP280;57876;47.792;12.960;2022-10-04T20:03:37;97513.09;;;18.56
70435;BMP280;57876;47.792;12.960;2022-10-04T20:06:02;97513.09;;;18.56
70435;BMP280;57876;47.792;12.960;2022-10-04T20:19:35;97522.06;;;18.57
70435;BMP280;57876;47.792;12.960;2022-10-04T20:27:26;97517.88;;;18.56
70435;BMP280;57876;47.792;12.960;2022-10-04T20:34:56;97506.16;;;18.55
70435;BMP280;57876;47.792;12.960;2022-10-04T20:45:43;97528.09;;;18.55
70435;BMP280;57876;47.792;12.960;2022-10-04T20:48:17;97521.91;;;18.55
70435;BMP280;57876;47.792;12.960;2022-10-04T20:50:46;97523.34;;;18.56
70435;BMP280;57876;47.792;12.960;2022-10-04T20:53:22;97522.59;;;18.55
70435;BMP280;57876;47.792;12.960;2022-10-04T20:55:47;97519.19;;;18.55
70435;BMP280;57876;47.792;12.960;2022-10-04T20:58:23;97527.41;;;18.55
70435;BMP280;57876;47.792;12.960;2022-10-04T21:00:56;97521.91;;;18.55
70435;BMP280;57876;47.792;12.960;2022-10-04T21:03:21;97523.91;;;18.54
70435;BMP280;57876;47.792;12.960;2022-10-04T21:06:01;97521.91;;;18.55
70435;BMP280;57876;47.792;12.960;2022-10-04T21:08:26;97519.72;;;18.53
70435;BMP280;57876;47.792;12.960;2022-10-04T21:11:03;97530.16;;;18.55
70435;BMP280;57876;47.792;12.960;2022-10-04T21:13:38;97538.19;;;18.53
70435;BMP280;57876;47.792;12.960;2022-10-04T21:16:05;97540.94;;;18.53
70435;BMP280;57876;47.792;12.960;2022-10-04T21:18:29;97537.44;;;18.52
70435;BMP280;57876;47.792;12.960;2022-10-04T21:20:53;97529.75;;;18.51
70435;BMP280;57876;47.792;12.960;2022-10-04T21:23:33;97527.00;;;18.51
70435;BMP280;57876;47.792;12.960;2022-10-04T21:28:41;97535.09;;;18.49
70435;BMP280;57876;47.792;12.960;2022-10-04T21:31:06;97538.56;;;18.49
70435;BMP280;57876;47.792;12.960;2022-10-04T21:33:31;97541.84;;;18.48
70435;BMP280;57876;47.792;12.960;2022-10-04T21:35:55;97541.84;;;18.48
70435;BMP280;57876;47.792;12.960;2022-10-04T21:38:20;97543.13;;;18.47
70435;BMP280;57876;47.792;12.960;2022-10-04T21:40:44;97548.59;;;18.47
70435;BMP280;57876;47.792;12.960;2022-10-04T21:43:08;97547.88;;;18.46
70435;BMP280;57876;47.792;12.960;2022-10-04T21:45:33;97552.66;;;18.46
70435;BMP280;57876;47.792;12.960;2022-10-04T21:47:57;97547.72;;;18.44
70435;BMP280;57876;47.792;12.960;2022-10-04T21:50:21;97549.19;;;18.45
70435;BMP280;57876;47.792;12.960;2022-10-04T21:52:46;97547.72;;;18.44
70435;BMP280;57876;47.792;12.960;2022-10-04T21:55:10;97542.25;;;18.44
70435;BMP280;57876;47.792;12.960;2022-10-04T21:57:35;97541.50;;;18.44
70435;BMP280;57876;47.792;12.960;2022-10-04T21:59:59;97547.53;;;18.42
70435;BMP280;57876;47.792;12.960;2022-10-04T22:02:24;97559.94;;;18.43
70435;BMP280;57876;47.792;12.960;2022-10-04T22:04:48;97546.25;;;18.43
70435;BMP280;57876;47.792;12.960;2022-10-04T22:07:12;97553.00;;;18.42
70435;BMP280;57876;47.792;12.960;2022-10-04T22:09:37;97554.31;;;18.41
70435;BMP280;57876;47.792;12.960;2022-10-04T22:12:01;97553.59;;;18.41
70435;BMP280;57876;47.792;12.960;2022-10-04T22:14:25;97550.84;;;18.41
70435;BMP280;57876;47.792;12.960;2022-10-04T22:16:50;97559.06;;;18.41
70435;BMP280;57876;47.792;12.960;2022-10-04T22:19:14;97565.84;;;18.40
70435;BMP280;57876;47.792;12.960;2022-10-04T22:21:38;97562.34;;;18.39
70435;BMP280;57876;47.792;12.960;2022-10-04T22:24:18;97562.34;;;18.39
70435;BMP280;57876;47.792;12.960;2022-10-04T22:26:43;97567.81;;;18.39
70435;BMP280;57876;47.792;12.960;2022-10-04T22:29:12;97577.31;;;18.38
70435;BMP280;57876;47.792;12.960;2022-10-04T22:31:38;97572.41;;;18.37
70435;BMP280;57876;47.792;12.960;2022-10-04T22:34:02;97580.63;;;18.37
70435;BMP280;57876;47.792;12.960;2022-10-04T22:36:35;97588.13;;;18.36
70435;BMP280;57876;47.792;12.960;2022-10-04T22:39:12;97570.94;;;18.36
70435;BMP280;57876;47.792;12.960;2022-10-04T22:41:51;97581.19;;;18.35
70435;BMP280;57876;47.792;12.960;2022-10-04T22:44:19;97573.50;;;18.34
70435;BMP280;57876;47.792;12.960;2022-10-04T22:46:57;97566.56;;;18.33
70435;BMP280;57876;47.792;12.960;2022-10-04T22:49:43;97568.59;;;18.32
70435;BMP280;57876;47.792;12.960;2022-10-04T22:52:20;97576.09;;;18.32
70435;BMP280;57876;47.792;12.960;2022-10-04T22:54:47;97580.09;;;18.31
70435;BMP280;57876;47.792;12.960;2022-10-04T22:57:15;97575.19;;;18.29
70435;BMP280;57876;47.792;12.960;2022-10-04T22:59:42;97579.38;;;18.30
70435;BMP280;57876;47.792;12.960;2022-10-04T23:02:21;97592.34;;;18.30
70435;BMP280;57876;47.792;12.960;2022-10-04T23:07:32;97584.66;;;18.28
70435;BMP280;57876;47.792;12.960;2022-10-04T23:09:57;97594.16;;;18.27
70435;BMP280;57876;47.792;12.960;2022-10-04T23:12:21;97593.47;;;18.27
70435;BMP280;57876;47.792;12.960;2022-10-04T23:14:45;97600.94;;;18.26
70435;BMP280;57876;47.792;12.960;2022-10-04T23:17:22;97598.19;;;18.26
70435;BMP280;57876;47.792;12.960;2022-10-04T23:19:46;97601.50;;;18.25
70435;BMP280;57876;47.792;12.960;2022-10-04T23:22:16;97594.72;;;18.26
70435;BMP280;57876;47.792;12.960;2022-10-04T23:24:41;97593.97;;;18.25
70435;BMP280;57876;47.792;12.960;2022-10-04T23:27:06;97591.25;;;18.25
70435;BMP280;57876;47.792;12.960;2022-10-04T23:29:35;97593.81;;;18.23
70435;BMP280;57876;47.792;12.960;2022-10-04T23:32:08;97600.03;;;18.24
70435;BMP280;57876;47.792;12.960;2022-10-04T23:34:37;97601.34;;;18.23
70435;BMP280;57876;47.792;12.960;2022-10-04T23:37:08;97597.28;;;18.24
70435;BMP280;57876;47.792;12.960;2022-10-04T23:39:36;97600.59;;;18.22
70435;BMP280;57876;47.792;12.960;2022-10-04T23:42:09;97595.09;;;18.22
70435;BMP280;57876;47.792;12.960;2022-10-04T23:44:36;97600.59;;;18.22
70435;BMP280;57876;47.792;12.960;2022-10-04T23:47:01;97592.91;;;18.21
70435;BMP280;57876;47.792;12.960;2022-10-04T23:49:26;97592.91;;;18.21
70435;BMP280;57876;47.792;12.960;2022-10-04T23:51:58;97585.97;;;18.20
70435;BMP280;57876;47.792;12.960;2022-10-04T23:54:23;97583.22;;;18.20